createdAt,value
2023-04-06T00:00:27.476Z,4.27
2023-04-06T00:03:01.244Z,4.16
2023-04-06T00:05:34.635Z,4.42
2023-04-06T00:08:07.649Z,4.52
2023-04-06T00:10:41.008Z,4.18
2023-04-06T00:13:16.343Z,4.47
2023-04-06T00:15:49.789Z,4.42
2023-04-06T00:18:23.040Z,4.08
2023-04-06T00:20:56.653Z,4.17
2023-04-06T00:23:29.840Z,4.32
2023-04-06T00:26:03.150Z,4.38
2023-04-06T00:28:37.694Z,4.25
2023-04-06T00:31:10.752Z,4.31
2023-04-06T00:33:43.923Z,4.21
2023-04-06T00:36:16.932Z,4.31
2023-04-06T00:38:50.028Z,4.24
2023-04-06T00:41:23.321Z,4.14
2023-04-06T00:43:58.700Z,4.12
2023-04-06T00:46:32.082Z,4.23
2023-04-06T00:49:05.447Z,4.24
2023-04-06T00:51:38.780Z,4.27
2023-04-06T00:54:12.062Z,4.32
2023-04-06T00:56:45.804Z,3.87
2023-04-06T00:59:20.543Z,4.14
2023-04-06T01:01:53.752Z,3.99
2023-04-06T01:04:27.257Z,3.84
2023-04-06T01:07:00.537Z,4.03
2023-04-06T01:09:33.795Z,4.00
2023-04-06T01:12:07.842Z,3.90
2023-04-06T01:14:42.782Z,3.89
2023-04-06T01:17:16.463Z,3.98
2023-04-06T01:19:50.546Z,3.91
2023-04-06T01:22:26.283Z,3.82
2023-04-06T01:24:59.657Z,4.21
2023-04-06T01:27:32.933Z,4.44
2023-04-06T01:30:07.070Z,4.17
2023-04-06T01:32:40.735Z,4.40
2023-04-06T01:35:13.751Z,4.17
2023-04-06T01:37:48.399Z,4.38
2023-04-06T01:40:21.891Z,4.40
2023-04-06T01:42:55.065Z,4.48
2023-04-06T01:45:28.026Z,4.14
2023-04-06T01:48:01.330Z,4.52
2023-04-06T01:50:34.529Z,4.84
2023-04-06T01:53:09.170Z,4.24
2023-04-06T01:55:42.865Z,4.30
2023-04-06T01:58:16.495Z,4.31
2023-04-06T02:00:49.730Z,4.06
2023-04-06T02:03:23.123Z,4.10
2023-04-06T02:05:56.580Z,4.12
2023-04-06T02:08:31.276Z,4.08
2023-04-06T02:11:04.509Z,3.90
2023-04-06T02:13:38.165Z,4.01
2023-04-06T02:16:11.743Z,4.06
2023-04-06T02:18:45.010Z,4.05
2023-04-06T02:21:21.118Z,4.10
2023-04-06T02:23:56.140Z,3.88
2023-04-06T02:26:29.232Z,4.12
2023-04-06T02:29:03.132Z,3.92
2023-04-06T02:31:36.231Z,3.93
2023-04-06T02:34:12.077Z,4.07
2023-04-06T02:36:46.029Z,3.81
2023-04-06T02:39:20.511Z,4.01
2023-04-06T02:41:53.583Z,3.86
2023-04-06T02:44:27.079Z,3.92
2023-04-06T02:47:00.300Z,3.77
2023-04-06T02:49:33.443Z,4.08
2023-04-06T02:52:06.864Z,3.77
2023-04-06T02:54:41.341Z,3.72
2023-04-06T02:57:17.374Z,3.94
2023-04-06T02:59:50.610Z,3.87
2023-04-06T03:02:23.906Z,3.69
2023-04-06T03:04:57.280Z,3.92
2023-04-06T03:07:30.904Z,3.86
2023-04-06T03:10:07.866Z,3.71
2023-04-06T03:12:42.629Z,3.87
2023-04-06T03:15:16.240Z,3.88
2023-04-06T03:17:49.533Z,3.73
2023-04-06T03:20:22.922Z,3.77
2023-04-06T03:22:55.894Z,3.59
2023-04-06T03:25:31.666Z,3.45
2023-04-06T03:28:04.895Z,3.57
2023-04-06T03:30:38.264Z,3.51
2023-04-06T03:33:11.623Z,3.71
2023-04-06T03:35:44.782Z,3.77
2023-04-06T03:38:18.008Z,3.31
2023-04-06T03:40:52.640Z,3.49
2023-04-06T03:43:27.570Z,3.64
2023-04-06T03:46:04.299Z,3.94
2023-04-06T03:48:37.909Z,3.77
2023-04-06T03:51:11.263Z,3.73
2023-04-06T03:53:44.271Z,3.65
2023-04-06T03:56:18.698Z,3.56
2023-04-06T03:58:53.892Z,3.54
2023-04-06T04:01:27.544Z,3.54
2023-04-06T04:04:00.718Z,3.61
2023-04-06T04:06:34.086Z,3.42
2023-04-06T04:09:07.646Z,3.52
2023-04-06T04:11:42.491Z,3.49
2023-04-06T04:14:16.208Z,3.50
2023-04-06T04:16:50.225Z,3.50
2023-04-06T04:19:23.305Z,3.42
2023-04-06T04:21:56.346Z,3.64
2023-04-06T04:24:29.361Z,3.50
2023-04-06T04:27:04.371Z,3.64
2023-04-06T04:29:37.876Z,3.61
2023-04-06T04:32:11.331Z,3.39
2023-04-06T04:34:44.397Z,3.90
2023-04-06T04:37:17.382Z,3.57
2023-04-06T04:39:50.606Z,3.52
2023-04-06T04:42:25.181Z,3.70
2023-04-06T04:44:58.416Z,3.71
2023-04-06T04:47:31.751Z,3.64
2023-04-06T04:50:04.940Z,3.51
2023-04-06T04:52:38.865Z,3.62
2023-04-06T04:55:11.891Z,3.51
2023-04-06T04:57:46.660Z,3.46
2023-04-06T05:00:21.008Z,3.57
2023-04-06T05:02:54.576Z,3.76
2023-04-06T05:05:27.770Z,3.87
2023-04-06T05:08:00.901Z,3.81
2023-04-06T05:10:35.250Z,3.89
2023-04-06T05:13:10.526Z,4.08
2023-04-06T05:15:44.604Z,4.01
2023-04-06T05:18:18.023Z,3.99
2023-04-06T05:20:52.738Z,4.33
2023-04-06T05:23:25.937Z,4.20
2023-04-06T05:25:59.089Z,3.96
2023-04-06T05:28:34.320Z,4.24
2023-04-06T05:31:07.636Z,4.38
2023-04-06T05:33:44.058Z,4.44
2023-04-06T05:36:17.198Z,4.35
2023-04-06T05:38:51.624Z,4.42
2023-04-06T05:41:25.829Z,4.44
2023-04-06T05:44:00.811Z,4.40
2023-04-06T05:46:33.863Z,4.49
2023-04-06T05:49:07.376Z,4.63
2023-04-06T05:51:40.683Z,4.76
2023-04-06T05:54:14.061Z,4.56
2023-04-06T05:56:47.575Z,4.55
2023-04-06T05:59:22.421Z,4.53
2023-04-06T06:01:55.444Z,4.44
2023-04-06T06:04:28.930Z,4.65
2023-04-06T06:07:02.433Z,4.45
2023-04-06T06:09:35.724Z,4.67
2023-04-06T06:12:11.416Z,4.70
2023-04-06T06:14:47.930Z,4.71
2023-04-06T06:17:21.362Z,4.86
2023-04-06T06:19:54.643Z,4.55
2023-04-06T06:22:28.503Z,4.53
2023-04-06T06:25:02.200Z,4.67
2023-04-06T06:27:35.676Z,4.65
2023-04-06T06:30:10.905Z,4.85
2023-04-06T06:32:44.145Z,4.73
2023-04-06T06:35:17.324Z,4.87
2023-04-06T06:37:50.492Z,4.90
2023-04-06T06:40:25.276Z,5.34
2023-04-06T06:42:58.540Z,5.40
2023-04-06T06:45:33.289Z,5.44
2023-04-06T06:48:06.449Z,5.75
2023-04-06T06:50:39.662Z,5.79
2023-04-06T06:53:13.211Z,5.89
2023-04-06T06:55:46.815Z,5.71
2023-04-06T06:58:20.569Z,5.87
2023-04-06T07:00:57.931Z,5.96
2023-04-06T07:03:31.109Z,6.03
2023-04-06T07:06:04.314Z,6.19
2023-04-06T07:08:37.787Z,6.42
2023-04-06T07:11:11.196Z,6.46
2023-04-06T07:13:45.026Z,6.39
2023-04-06T07:16:19.594Z,6.38
2023-04-06T07:18:52.757Z,6.40
2023-04-06T07:21:26.344Z,6.29
2023-04-06T07:23:59.693Z,6.44
2023-04-06T07:26:33.027Z,6.62
2023-04-06T07:29:06.256Z,6.37
2023-04-06T07:31:40.746Z,6.56
2023-04-06T07:34:14.259Z,6.58
2023-04-06T07:36:47.563Z,6.70
2023-04-06T07:39:21.532Z,6.39
2023-04-06T07:41:54.731Z,6.68
2023-04-06T07:44:28.206Z,6.72
2023-04-06T07:47:02.795Z,6.93
2023-04-06T07:49:35.965Z,7.14
2023-04-06T07:52:09.075Z,7.20
2023-04-06T07:54:43.008Z,7.27
2023-04-06T07:57:16.130Z,7.03
2023-04-06T07:59:49.411Z,7.14
2023-04-06T08:02:23.920Z,7.36
2023-04-06T08:04:58.297Z,7.39
2023-04-06T08:07:31.487Z,7.30
2023-04-06T08:10:06.089Z,7.38
2023-04-06T08:12:40.944Z,7.41
2023-04-06T08:15:14.700Z,7.51
2023-04-06T08:17:49.376Z,7.61
2023-04-06T08:20:22.603Z,7.65
2023-04-06T08:22:56.312Z,7.80
2023-04-06T08:25:29.786Z,7.52
2023-04-06T08:28:03.310Z,7.73
2023-04-06T08:30:36.473Z,7.61
2023-04-06T08:33:11.268Z,7.83
2023-04-06T08:35:44.456Z,8.03
2023-04-06T08:38:17.855Z,7.94
2023-04-06T08:40:52.751Z,7.93
2023-04-06T08:43:27.275Z,8.17
2023-04-06T08:46:00.428Z,8.34
2023-04-06T08:48:35.646Z,8.13
2023-04-06T08:51:08.795Z,8.05
2023-04-06T08:53:43.138Z,8.22
2023-04-06T08:56:16.539Z,8.47
2023-04-06T08:58:50.202Z,8.08
2023-04-06T09:01:23.970Z,8.14
2023-04-06T09:04:00.173Z,8.39
2023-04-06T09:06:33.569Z,8.62
2023-04-06T09:09:07.005Z,8.54
2023-04-06T09:11:47.387Z,8.70
2023-04-06T09:14:35.251Z,8.60
2023-04-06T09:17:08.747Z,8.52
2023-04-06T09:19:49.062Z,8.62
2023-04-06T09:22:22.520Z,8.81
2023-04-06T09:24:56.150Z,8.97
2023-04-06T09:27:33.032Z,8.81
2023-04-06T09:30:07.714Z,8.66
2023-04-06T09:32:48.481Z,9.00
2023-04-06T09:35:23.903Z,9.19
2023-04-06T09:37:57.623Z,8.78
2023-04-06T09:40:31.281Z,9.06
2023-04-06T09:43:08.027Z,9.15
2023-04-06T09:45:41.784Z,9.07
2023-04-06T09:48:15.136Z,9.00
2023-04-06T09:50:50.950Z,8.92
2023-04-06T09:53:27.927Z,9.05
2023-04-06T09:56:04.677Z,9.34
2023-04-06T09:58:39.496Z,9.47
2023-04-06T10:01:14.981Z,9.53
2023-04-06T10:03:52.349Z,9.49
2023-04-06T10:06:29.294Z,9.31
2023-04-06T10:09:03.736Z,9.51
2023-04-06T10:11:37.275Z,9.48
2023-04-06T10:14:12.904Z,9.45
2023-04-06T10:16:48.270Z,9.23
2023-04-06T10:19:26.341Z,9.52
2023-04-06T10:22:02.702Z,9.50
2023-04-06T10:24:37.720Z,9.50
2023-04-06T10:27:12.308Z,9.64
2023-04-06T10:29:49.788Z,9.55
2023-04-06T10:32:33.715Z,9.62
2023-04-06T10:35:10.613Z,9.66
2023-04-06T10:37:53.821Z,9.67
2023-04-06T10:40:28.007Z,9.93
2023-04-06T10:43:09.662Z,9.72
2023-04-06T10:45:44.513Z,9.49
2023-04-06T10:48:18.476Z,9.66
2023-04-06T10:50:52.533Z,9.78
2023-04-06T10:53:27.720Z,9.73
2023-04-06T10:56:02.004Z,9.67
2023-04-06T10:58:35.646Z,9.57
2023-04-06T11:01:09.140Z,9.43
2023-04-06T11:03:46.303Z,9.29
2023-04-06T11:06:23.237Z,9.71
2023-04-06T11:08:58.370Z,9.64
2023-04-06T11:11:31.651Z,9.64
2023-04-06T11:14:06.345Z,9.73
2023-04-06T11:16:40.370Z,9.90
2023-04-06T11:19:13.819Z,9.90
2023-04-06T11:21:49.345Z,10.14
2023-04-06T11:24:24.631Z,10.31
2023-04-06T11:27:01.904Z,10.03
2023-04-06T11:29:37.798Z,10.28
2023-04-06T11:32:10.934Z,10.36
2023-04-06T11:34:44.072Z,10.23
2023-04-06T11:37:17.047Z,10.28
2023-04-06T11:39:52.184Z,10.58
2023-04-06T11:42:25.990Z,10.46
2023-04-06T11:45:00.814Z,10.62
2023-04-06T11:47:35.410Z,10.69
2023-04-06T11:50:09.574Z,10.50
2023-04-06T11:52:44.854Z,10.51
2023-04-06T11:55:20.884Z,10.28
2023-04-06T11:57:54.250Z,10.35
2023-04-06T12:00:27.406Z,10.62
2023-04-06T12:03:00.801Z,10.59
2023-04-06T12:05:35.606Z,10.71
2023-04-06T12:08:08.815Z,10.77
2023-04-06T12:10:43.536Z,10.69
2023-04-06T12:13:17.416Z,10.77
2023-04-06T12:15:51.272Z,10.59
2023-04-06T12:18:24.491Z,10.60
2023-04-06T12:20:57.537Z,10.45
2023-04-06T12:23:31.389Z,10.56
2023-04-06T12:26:06.541Z,10.69
2023-04-06T12:28:46.677Z,10.84
2023-04-06T12:31:19.912Z,10.64
2023-04-06T12:33:53.764Z,10.84
2023-04-06T12:36:27.655Z,10.73
2023-04-06T12:39:01.365Z,10.90
2023-04-06T12:41:36.728Z,10.73
2023-04-06T12:44:09.734Z,10.87
2023-04-06T12:46:44.308Z,11.04
2023-04-06T12:49:20.165Z,10.89
2023-04-06T12:51:53.313Z,10.90
2023-04-06T12:54:27.814Z,11.00
2023-04-06T12:57:03.116Z,11.26
2023-04-06T12:59:36.633Z,11.15
2023-04-06T13:02:09.750Z,11.20
2023-04-06T13:04:42.894Z,11.33
2023-04-06T13:07:16.213Z,11.18
2023-04-06T13:09:50.550Z,11.31
2023-04-06T13:12:26.404Z,11.38
2023-04-06T13:15:01.030Z,11.46
2023-04-06T13:17:35.310Z,11.52
2023-04-06T13:20:09.007Z,11.46
2023-04-06T13:22:42.398Z,11.65
2023-04-06T13:25:25.650Z,11.71
2023-04-06T13:28:00.537Z,11.57
2023-04-06T13:30:33.578Z,11.52
2023-04-06T13:33:07.446Z,11.47
2023-04-06T13:35:40.888Z,11.45
2023-04-06T13:38:14.090Z,11.52
2023-04-06T13:40:47.163Z,11.54
2023-04-06T13:43:21.905Z,11.66
2023-04-06T13:45:56.701Z,11.67
2023-04-06T13:48:30.108Z,11.53
2023-04-06T13:51:10.135Z,11.19
2023-04-06T13:53:43.177Z,11.05
2023-04-06T13:56:16.362Z,11.09
2023-04-06T13:58:50.870Z,11.21
2023-04-06T14:01:24.189Z,11.35
2023-04-06T14:03:57.462Z,11.19
2023-04-06T14:06:32.004Z,11.22
2023-04-06T14:09:05.696Z,11.14
2023-04-06T14:11:39.148Z,11.26
2023-04-06T14:14:15.646Z,11.27
2023-04-06T14:16:49.168Z,11.22
2023-04-06T14:19:22.740Z,11.33
2023-04-06T14:21:55.774Z,11.29
2023-04-06T14:24:28.987Z,11.27
2023-04-06T14:27:03.704Z,11.17
2023-04-06T14:29:40.449Z,11.13
2023-04-06T14:32:13.513Z,11.21
2023-04-06T14:34:46.837Z,11.18
2023-04-06T14:37:20.111Z,11.28
2023-04-06T14:39:53.044Z,11.24
2023-04-06T14:42:26.289Z,11.24
2023-04-06T14:45:02.331Z,11.27
2023-04-06T14:47:35.314Z,11.12
2023-04-06T14:50:08.934Z,11.18
2023-04-06T14:52:42.508Z,11.15
2023-04-06T14:55:16.625Z,11.18
2023-04-06T14:57:49.922Z,11.14
2023-04-06T15:00:25.576Z,11.12
2023-04-06T15:02:58.655Z,11.19
2023-04-06T15:05:32.726Z,11.07
2023-04-06T15:08:06.154Z,11.02
2023-04-06T15:10:39.653Z,11.02
2023-04-06T15:13:13.566Z,11.07
2023-04-06T15:15:48.249Z,11.07
2023-04-06T15:18:22.173Z,10.91
2023-04-06T15:20:55.260Z,10.82
2023-04-06T15:23:30.709Z,10.74
2023-04-06T15:26:04.850Z,10.89
2023-04-06T15:28:38.324Z,10.73
2023-04-06T15:31:35.959Z,10.65
2023-04-06T15:34:10.564Z,10.56
2023-04-06T15:36:44.663Z,10.48
2023-04-06T15:39:17.817Z,10.51
2023-04-06T15:41:50.885Z,10.58
2023-04-06T15:44:24.095Z,10.45
2023-04-06T15:46:58.729Z,10.42
2023-04-06T15:49:31.817Z,10.40
2023-04-06T15:52:04.830Z,10.29
2023-04-06T15:54:41.138Z,10.32
2023-04-06T15:57:14.839Z,10.30
2023-04-06T15:59:48.147Z,10.25
2023-04-06T16:02:23.858Z,10.16
2023-04-06T16:04:57.722Z,10.15
2023-04-06T16:07:30.860Z,10.07
2023-04-06T16:10:04.940Z,10.17
2023-04-06T16:12:42.537Z,10.15
2023-04-06T16:15:16.903Z,10.00
2023-04-06T16:17:52.738Z,10.02
2023-04-06T16:20:25.862Z,9.98
2023-04-06T16:22:58.730Z,10.00
2023-04-06T16:25:31.996Z,10.16
2023-04-06T16:28:05.650Z,10.11
2023-04-06T16:30:40.993Z,10.05
2023-04-06T16:33:19.323Z,10.14
2023-04-06T16:35:53.054Z,9.96
2023-04-06T16:38:30.108Z,10.00
2023-04-06T16:41:03.682Z,10.07
2023-04-06T16:43:37.064Z,9.92
2023-04-06T16:46:10.414Z,9.89
2023-04-06T16:48:44.904Z,9.89
2023-04-06T16:51:18.930Z,9.89
2023-04-06T16:53:57.399Z,9.81
2023-04-06T16:56:31.375Z,9.81
2023-04-06T16:59:08.927Z,9.94
2023-04-06T17:01:45.660Z,10.13
2023-04-06T17:04:20.823Z,10.05
2023-04-06T17:06:53.921Z,10.06
2023-04-06T17:12:18.650Z,9.93
2023-04-06T17:14:55.516Z,10.09
2023-04-06T17:17:29.392Z,9.88
2023-04-06T17:20:07.952Z,9.98
2023-04-06T17:22:42.152Z,9.92
2023-04-06T17:25:20.575Z,9.93
2023-04-06T17:27:53.644Z,9.65
2023-04-06T17:30:26.973Z,9.74
2023-04-06T17:33:00.960Z,10.00
2023-04-06T17:35:35.875Z,10.33
2023-04-06T17:38:09.450Z,9.78
2023-04-06T17:40:42.594Z,9.65
2023-04-06T17:43:16.058Z,9.62
2023-04-06T17:45:49.787Z,9.68
2023-04-06T17:48:26.461Z,9.78
2023-04-06T17:51:01.665Z,9.86
2023-04-06T17:53:37.100Z,10.09
2023-04-06T17:56:10.416Z,9.80
2023-04-06T17:58:43.405Z,9.90
2023-04-06T18:01:18.978Z,9.93
2023-04-06T18:03:52.474Z,9.57
2023-04-06T18:06:27.602Z,9.78
2023-04-06T18:09:01.500Z,9.49
2023-04-06T18:11:34.678Z,9.76
2023-04-06T18:14:07.973Z,9.73
2023-04-06T18:16:42.630Z,9.73
2023-04-06T18:19:16.303Z,9.62
2023-04-06T18:21:50.692Z,9.47
2023-04-06T18:24:40.450Z,9.51
2023-04-06T18:27:21.137Z,9.48
2023-04-06T18:29:56.871Z,9.23
2023-04-06T18:32:30.687Z,9.20
2023-04-06T18:35:05.541Z,9.40
2023-04-06T18:37:43.604Z,9.30
2023-04-06T18:40:35.035Z,9.10
2023-04-06T18:43:09.006Z,9.35
2023-04-06T18:45:43.494Z,9.20
2023-04-06T18:48:16.541Z,9.17
2023-04-06T18:50:54.115Z,9.00
2023-04-06T18:53:28.409Z,9.28
2023-04-06T18:56:01.831Z,9.15
2023-04-06T18:58:35.887Z,9.02
2023-04-06T19:01:08.877Z,8.90
2023-04-06T19:03:44.521Z,8.98
2023-04-06T19:06:17.780Z,8.85
2023-04-06T19:08:52.425Z,8.93
2023-04-06T19:11:26.300Z,8.71
2023-04-06T19:14:00.180Z,8.80
2023-04-06T19:16:33.559Z,8.74
2023-04-06T19:19:06.836Z,8.74
2023-04-06T19:21:39.968Z,8.63
2023-04-06T19:24:14.427Z,8.44
2023-04-06T19:26:48.396Z,8.47
2023-04-06T19:29:21.690Z,8.33
2023-04-06T19:31:54.956Z,8.27
2023-04-06T19:34:28.684Z,8.23
2023-04-06T19:37:01.910Z,8.25
2023-04-06T19:39:37.853Z,8.17
2023-04-06T19:42:12.286Z,8.03
2023-04-06T19:44:45.274Z,8.01
2023-04-06T19:47:18.805Z,8.11
2023-04-06T19:49:51.920Z,8.00
2023-04-06T19:52:25.275Z,8.04
2023-04-06T19:54:59.791Z,8.18
2023-04-06T19:57:33.243Z,8.14
2023-04-06T20:00:07.207Z,8.01
2023-04-06T20:02:40.424Z,7.83
2023-04-06T20:05:13.578Z,7.96
2023-04-06T20:07:47.670Z,8.05
2023-04-06T20:10:22.490Z,7.74
2023-04-06T20:12:56.056Z,7.82
2023-04-06T20:15:29.876Z,7.85
2023-04-06T20:18:03.278Z,7.96
2023-04-06T20:20:36.477Z,7.72
2023-04-06T20:23:09.542Z,7.78
2023-04-06T20:25:44.137Z,7.82
2023-04-06T20:28:17.427Z,7.61
2023-04-06T20:30:52.274Z,7.59
2023-04-06T20:33:25.586Z,7.54
2023-04-06T20:35:58.735Z,7.55
2023-04-06T20:38:33.510Z,7.58
2023-04-06T20:41:10.300Z,7.66
2023-04-06T20:43:43.858Z,7.98
2023-04-06T20:46:18.134Z,7.98
2023-04-06T20:48:54.029Z,7.89
2023-04-06T20:51:27.100Z,7.88
2023-04-06T20:54:01.659Z,7.77
2023-04-06T20:56:36.118Z,7.48
2023-04-06T20:59:09.336Z,7.29
2023-04-06T21:01:42.562Z,7.21
2023-04-06T21:04:16.306Z,7.28
2023-04-06T21:06:49.607Z,7.37
2023-04-06T21:09:24.940Z,7.37
2023-04-06T21:12:01.792Z,7.42
2023-04-06T21:14:36.619Z,7.41
2023-04-06T21:17:10.240Z,7.42
2023-04-06T21:19:43.402Z,7.32
2023-04-06T21:22:16.741Z,7.69
2023-04-06T21:24:49.867Z,7.60
2023-04-06T21:27:24.632Z,7.22
2023-04-06T21:29:57.761Z,7.45
2023-04-06T21:32:30.872Z,7.05
2023-04-06T21:35:04.275Z,7.07
2023-04-06T21:37:37.554Z,7.20
2023-04-06T21:40:11.502Z,7.05
2023-04-06T21:42:46.183Z,7.17
2023-04-06T21:45:19.170Z,7.41
2023-04-06T21:47:52.374Z,7.42
2023-04-06T21:50:25.801Z,7.18
2023-04-06T21:52:59.404Z,6.90
2023-04-06T21:55:32.574Z,7.03
2023-04-06T21:58:07.407Z,7.10
2023-04-06T22:00:40.503Z,7.01
2023-04-06T22:03:13.698Z,7.03
2023-04-06T22:05:47.113Z,7.15
2023-04-06T22:08:32.712Z,7.02
2023-04-06T22:11:11.246Z,7.35
2023-04-06T22:13:46.645Z,7.31
2023-04-06T22:16:20.521Z,6.96
2023-04-06T22:18:56.575Z,7.12
2023-04-06T22:21:29.635Z,7.02
2023-04-06T22:24:02.633Z,7.32
2023-04-06T22:26:35.871Z,7.10
2023-04-06T22:29:10.479Z,7.15
2023-04-06T22:31:45.572Z,7.06
2023-04-06T22:34:20.139Z,7.14
2023-04-06T22:36:53.111Z,7.23
2023-04-06T22:39:26.164Z,6.91
2023-04-06T22:41:59.563Z,6.95
2023-04-06T22:44:34.483Z,7.10
2023-04-06T22:47:07.716Z,7.22
2023-04-06T22:49:40.692Z,6.92
2023-04-06T22:52:14.095Z,7.12
2023-04-06T22:54:47.683Z,7.11
2023-04-06T22:57:22.590Z,6.84
2023-04-06T22:59:57.407Z,7.13
2023-04-06T23:02:30.585Z,6.94
2023-04-06T23:05:03.639Z,6.90
2023-04-06T23:07:36.602Z,6.78
2023-04-06T23:10:10.041Z,7.01
2023-04-06T23:12:44.160Z,6.91
2023-04-06T23:15:19.337Z,6.82
2023-04-06T23:17:52.681Z,6.83
2023-04-06T23:20:28.124Z,6.79
2023-04-06T23:23:01.305Z,6.90
2023-04-06T23:25:34.431Z,6.76
2023-04-06T23:28:07.655Z,6.87
2023-04-06T23:30:42.069Z,6.74
2023-04-06T23:33:16.199Z,6.62
2023-04-06T23:35:50.285Z,6.56
2023-04-06T23:38:23.268Z,6.65
2023-04-06T23:40:56.520Z,6.74
2023-04-06T23:43:30.510Z,6.58
2023-04-06T23:46:04.995Z,6.47
2023-04-06T23:48:39.421Z,6.58
2023-04-06T23:51:12.513Z,6.47
2023-04-06T23:53:46.288Z,6.65
2023-04-06T23:56:19.508Z,6.79
2023-04-06T23:58:52.718Z,6.57
